createdAt,value
2017-12-15T00:02:14.136Z,20.60
2017-12-15T00:04:45.069Z,18.80
2017-12-15T00:07:14.359Z,20.40
2017-12-15T00:09:44.290Z,22.70
2017-12-15T00:12:14.689Z,20.30
2017-12-15T00:14:44.528Z,18.07
2017-12-15T00:17:14.790Z,16.73
2017-12-15T00:19:45.323Z,16.37
2017-12-15T00:22:17.555Z,14.60
2017-12-15T00:25:02.188Z,14.87
2017-12-15T00:27:32.027Z,15.90
2017-12-15T00:30:03.579Z,15.53
2017-12-15T00:32:34.505Z,15.67
2017-12-15T00:35:04.483Z,15.83
2017-12-15T00:37:33.635Z,14.83
2017-12-15T00:40:03.584Z,14.50
2017-12-15T00:42:35.204Z,15.73
2017-12-15T00:45:05.051Z,15.70
2017-12-15T00:47:34.252Z,13.30
2017-12-15T00:50:03.454Z,16.23
2017-12-15T00:52:33.572Z,14.37
2017-12-15T00:55:02.749Z,13.53
2017-12-15T00:57:33.085Z,13.50
2017-12-15T01:00:03.260Z,12.90
2017-12-15T01:02:32.380Z,13.67
2017-12-15T01:05:02.331Z,13.90
2017-12-15T01:07:31.391Z,13.97
2017-12-15T01:10:02.683Z,15.47
2017-12-15T01:12:33.310Z,17.63
2017-12-15T01:15:03.854Z,18.77
2017-12-15T01:17:34.125Z,16.57
2017-12-15T01:20:05.465Z,18.60
2017-12-15T01:22:37.989Z,20.20
2017-12-15T01:25:09.598Z,19.30
2017-12-15T01:27:40.373Z,22.67
2017-12-15T01:30:10.194Z,18.97
2017-12-15T01:32:40.133Z,17.80
2017-12-15T01:35:10.960Z,16.40
2017-12-15T01:37:41.358Z,16.33
2017-12-15T01:40:11.440Z,16.77
2017-12-15T01:42:40.649Z,17.50
2017-12-15T01:45:10.839Z,24.03
2017-12-15T01:47:40.714Z,22.70
2017-12-15T01:50:10.549Z,20.93
2017-12-15T01:52:40.826Z,20.40
2017-12-15T01:55:11.668Z,18.00
2017-12-15T01:57:40.648Z,17.87
2017-12-15T02:00:10.539Z,21.97
2017-12-15T02:05:41.999Z,21.07
2017-12-15T02:08:12.172Z,20.63
2017-12-15T02:10:41.115Z,20.33
2017-12-15T02:13:12.116Z,19.97
2017-12-15T02:15:41.310Z,19.03
2017-12-15T02:18:10.377Z,21.87
2017-12-15T02:20:39.382Z,22.63
2017-12-15T02:23:08.475Z,23.30
2017-12-15T02:25:39.415Z,22.87
2017-12-15T02:28:09.595Z,19.70
2017-12-15T02:30:40.355Z,21.27
2017-12-15T02:33:09.362Z,18.50
2017-12-15T02:35:40.055Z,17.97
2017-12-15T02:38:11.410Z,19.33
2017-12-15T02:43:20.560Z,17.97
2017-12-15T02:45:49.488Z,17.47
2017-12-15T02:48:20.078Z,19.67
2017-12-15T02:50:49.151Z,21.77
2017-12-15T02:53:18.271Z,21.30
2017-12-15T02:55:48.391Z,17.97
2017-12-15T03:00:53.224Z,17.60
2017-12-15T03:03:22.628Z,18.97
2017-12-15T03:05:51.940Z,17.47
2017-12-15T03:08:21.856Z,17.27
2017-12-15T03:10:54.843Z,17.50
2017-12-15T03:13:24.378Z,16.70
2017-12-15T03:15:54.366Z,16.00
2017-12-15T03:18:23.671Z,17.10
2017-12-15T03:20:52.967Z,15.87
2017-12-15T03:23:22.073Z,13.93
2017-12-15T03:25:53.630Z,16.20
2017-12-15T03:28:23.740Z,16.40
2017-12-15T03:30:57.824Z,16.00
2017-12-15T03:33:27.770Z,17.10
2017-12-15T03:35:56.857Z,18.00
2017-12-15T03:38:27.121Z,19.00
2017-12-15T03:40:57.402Z,18.83
2017-12-15T03:43:26.504Z,17.90
2017-12-15T03:45:57.482Z,16.70
2017-12-15T03:48:29.574Z,15.80
2017-12-15T03:50:59.401Z,17.63
2017-12-15T03:53:28.529Z,16.80
2017-12-15T03:55:57.518Z,17.50
2017-12-15T03:58:30.443Z,18.40
2017-12-15T04:00:59.495Z,16.07
2017-12-15T04:03:33.178Z,15.30
2017-12-15T04:06:03.374Z,17.60
2017-12-15T04:08:32.619Z,16.93
2017-12-15T04:11:02.774Z,19.77
2017-12-15T04:13:34.007Z,20.83
2017-12-15T04:16:02.984Z,18.13
2017-12-15T04:18:32.948Z,18.33
2017-12-15T04:21:03.166Z,19.40
2017-12-15T04:23:34.105Z,17.43
2017-12-15T04:26:03.161Z,18.07
2017-12-15T04:28:33.067Z,17.60
2017-12-15T04:31:04.112Z,18.50
2017-12-15T04:33:33.820Z,17.13
2017-12-15T04:36:03.021Z,16.00
2017-12-15T04:38:32.876Z,16.00
2017-12-15T04:41:01.961Z,21.00
2017-12-15T04:43:31.844Z,26.00
2017-12-15T04:46:00.904Z,24.30
2017-12-15T04:48:35.142Z,23.03
2017-12-15T04:51:04.456Z,24.57
2017-12-15T04:53:33.408Z,19.30
2017-12-15T04:56:02.644Z,18.67
2017-12-15T05:01:06.663Z,20.10
2017-12-15T05:03:36.683Z,18.90
2017-12-15T05:06:06.553Z,18.17
2017-12-15T05:08:36.732Z,17.37
2017-12-15T05:11:07.620Z,17.33
2017-12-15T05:19:12.808Z,23.50
2017-12-15T05:21:41.759Z,27.40
2017-12-15T05:26:46.796Z,17.50
2017-12-15T05:29:15.873Z,17.90
2017-12-15T05:31:45.993Z,17.70
2017-12-15T05:34:17.036Z,17.70
2017-12-15T05:36:53.747Z,18.50
2017-12-15T05:39:23.090Z,17.10
2017-12-15T05:41:52.206Z,18.67
2017-12-15T05:44:22.321Z,18.37
2017-12-15T05:46:52.476Z,20.40
2017-12-15T05:49:21.448Z,19.07
2017-12-15T05:51:51.194Z,18.80
2017-12-15T05:54:20.191Z,16.47
2017-12-15T05:56:50.363Z,16.87
2017-12-15T05:59:20.395Z,14.00
2017-12-15T06:01:50.323Z,15.33
2017-12-15T06:04:19.992Z,15.30
2017-12-15T06:06:49.938Z,14.90
2017-12-15T06:09:19.290Z,14.27
2017-12-15T06:11:48.491Z,14.40
2017-12-15T06:14:18.584Z,14.83
2017-12-15T06:16:47.812Z,14.07
2017-12-15T06:19:17.854Z,14.17
2017-12-15T06:21:49.640Z,14.93
2017-12-15T06:24:19.382Z,14.23
2017-12-15T06:26:49.008Z,15.00
2017-12-15T06:29:18.770Z,13.70
2017-12-15T06:31:47.998Z,15.60
2017-12-15T06:34:20.303Z,13.83
2017-12-15T06:36:49.746Z,13.73
2017-12-15T06:39:19.735Z,13.80
2017-12-15T06:41:49.044Z,11.60
2017-12-15T06:44:18.191Z,10.30
2017-12-15T06:46:47.314Z,11.10
2017-12-15T06:49:16.580Z,9.43
2017-12-15T06:51:45.788Z,8.87
2017-12-15T06:54:14.850Z,7.70
2017-12-15T06:56:47.023Z,6.80
2017-12-15T06:59:17.717Z,8.30
2017-12-15T07:01:52.892Z,9.93
2017-12-15T07:04:22.012Z,8.43
2017-12-15T07:06:52.849Z,7.77
2017-12-15T07:09:24.144Z,7.90
2017-12-15T07:11:54.653Z,8.20
2017-12-15T07:14:23.743Z,8.80
2017-12-15T07:16:55.601Z,7.13
2017-12-15T07:19:24.666Z,6.87
2017-12-15T07:21:54.282Z,9.43
2017-12-15T07:24:23.407Z,8.50
2017-12-15T07:26:55.941Z,8.50
2017-12-15T07:29:25.141Z,8.70
2017-12-15T07:31:54.325Z,9.40
2017-12-15T07:34:23.896Z,8.37
2017-12-15T07:36:53.681Z,8.47
2017-12-15T07:39:22.715Z,17.07
2017-12-15T07:41:52.058Z,23.03
2017-12-15T07:44:22.371Z,29.80
2017-12-15T07:46:51.383Z,50.00
2017-12-15T07:49:21.397Z,52.20
2017-12-15T07:51:51.283Z,58.67
2017-12-15T07:54:22.252Z,54.53
2017-12-15T07:56:51.578Z,50.67
2017-12-15T07:59:20.793Z,54.67
2017-12-15T08:01:49.943Z,49.00
2017-12-15T08:04:18.956Z,30.20
2017-12-15T08:06:48.066Z,30.03
2017-12-15T08:09:17.163Z,31.00
2017-12-15T08:11:46.682Z,29.23
2017-12-15T08:14:15.764Z,51.80
2017-12-15T08:16:44.862Z,54.60
2017-12-15T08:19:17.881Z,51.80
2017-12-15T08:21:47.891Z,47.37
2017-12-15T08:24:16.920Z,43.63
2017-12-15T08:26:48.065Z,32.90
2017-12-15T08:29:18.137Z,27.97
2017-12-15T08:31:47.045Z,24.80
2017-12-15T08:34:16.816Z,21.97
2017-12-15T08:36:45.842Z,20.20
2017-12-15T08:39:14.800Z,16.67
2017-12-15T08:41:44.150Z,16.27
2017-12-15T08:44:13.073Z,37.90
2017-12-15T08:46:43.635Z,43.10
2017-12-15T08:49:14.410Z,42.70
2017-12-15T08:51:43.454Z,42.27
2017-12-15T08:54:12.559Z,41.90
2017-12-15T08:56:41.832Z,40.37
2017-12-15T08:59:11.037Z,36.43
2017-12-15T09:01:40.223Z,31.60
2017-12-15T09:04:19.776Z,27.00
2017-12-15T09:06:53.299Z,21.97
2017-12-15T09:09:22.583Z,22.37
2017-12-15T09:11:51.617Z,32.20
2017-12-15T09:14:20.655Z,46.70
2017-12-15T09:16:49.704Z,46.70
2017-12-15T09:19:18.582Z,56.93
2017-12-15T09:21:47.523Z,58.60
2017-12-15T09:24:17.508Z,58.80
2017-12-15T09:26:46.407Z,58.80
2017-12-15T09:29:15.361Z,62.80
2017-12-15T09:31:46.766Z,61.50
2017-12-15T09:34:17.573Z,53.90
2017-12-15T09:36:49.592Z,54.50
2017-12-15T09:39:18.629Z,54.90
2017-12-15T09:41:47.562Z,50.80
2017-12-15T09:44:17.330Z,47.27
2017-12-15T09:46:46.256Z,47.37
2017-12-15T09:49:15.153Z,45.00
2017-12-15T09:51:44.050Z,43.17
2017-12-15T09:54:12.864Z,41.07
2017-12-15T09:56:41.690Z,41.73
2017-12-15T09:59:11.433Z,37.83
2017-12-15T10:01:40.363Z,39.77
2017-12-15T10:04:09.240Z,40.10
2017-12-15T10:06:38.168Z,38.50
2017-12-15T10:09:07.192Z,37.87
2017-12-15T10:11:36.324Z,37.23
2017-12-15T10:14:06.009Z,32.30
2017-12-15T10:16:34.857Z,31.67
2017-12-15T10:19:04.148Z,28.90
2017-12-15T10:21:33.967Z,27.37
2017-12-15T10:24:03.958Z,27.07
2017-12-15T10:26:33.200Z,29.47
2017-12-15T10:29:03.163Z,31.80
2017-12-15T10:31:32.114Z,32.30
2017-12-15T10:34:01.157Z,33.70
2017-12-15T10:36:30.509Z,31.97
2017-12-15T10:38:59.599Z,30.97
2017-12-15T10:41:28.747Z,30.30
2017-12-15T10:43:57.898Z,29.37
2017-12-15T10:46:27.708Z,29.30
2017-12-15T10:49:00.668Z,29.03
2017-12-15T10:51:29.842Z,26.83
2017-12-15T10:53:59.134Z,28.00
2017-12-15T10:59:04.829Z,29.53
2017-12-15T11:01:34.158Z,29.07
2017-12-15T11:04:04.893Z,29.13
2017-12-15T11:06:33.886Z,30.20
2017-12-15T11:09:03.138Z,30.20
2017-12-15T11:11:33.698Z,31.40
2017-12-15T11:14:04.772Z,29.77
2017-12-15T11:16:37.297Z,32.30
2017-12-15T11:19:06.535Z,30.97
2017-12-15T11:21:35.584Z,30.47
2017-12-15T11:24:07.425Z,29.43
2017-12-15T11:26:37.270Z,25.40
2017-12-15T11:29:06.876Z,21.37
2017-12-15T11:31:37.690Z,20.30
2017-12-15T11:34:07.519Z,23.10
2017-12-15T11:36:37.525Z,25.63
2017-12-15T11:39:06.825Z,24.70
2017-12-15T11:41:35.636Z,26.23
2017-12-15T11:44:04.569Z,24.97
2017-12-15T11:46:33.899Z,24.50
2017-12-15T11:49:02.926Z,26.10
2017-12-15T11:51:32.003Z,23.60
2017-12-15T11:54:02.777Z,23.50
2017-12-15T11:56:31.665Z,25.50
2017-12-15T11:59:01.007Z,24.37
2017-12-15T12:01:30.058Z,23.57
2017-12-15T12:04:00.015Z,20.50
2017-12-15T12:06:29.183Z,18.43
2017-12-15T12:08:59.342Z,17.37
2017-12-15T12:11:28.676Z,16.47
2017-12-15T12:13:57.666Z,14.17
2017-12-15T12:16:27.689Z,14.63
2017-12-15T12:18:56.874Z,15.90
2017-12-15T12:21:27.158Z,15.20
2017-12-15T12:23:56.422Z,13.93
2017-12-15T12:26:26.792Z,13.90
2017-12-15T12:28:55.937Z,13.57
2017-12-15T12:31:25.813Z,14.00
2017-12-15T12:33:54.866Z,13.73
2017-12-15T12:36:23.895Z,14.90
2017-12-15T12:38:53.186Z,14.03
2017-12-15T12:41:22.437Z,13.63
2017-12-15T12:43:59.111Z,14.43
2017-12-15T12:46:28.420Z,13.10
2017-12-15T12:48:57.423Z,11.93
2017-12-15T12:51:27.942Z,12.60
2017-12-15T12:53:57.118Z,12.77
2017-12-15T12:56:26.821Z,11.50
2017-12-15T12:59:01.195Z,11.40
2017-12-15T13:01:30.534Z,10.60
2017-12-15T13:04:00.004Z,11.40
2017-12-15T13:06:29.226Z,11.30
2017-12-15T13:08:58.322Z,10.57
2017-12-15T13:11:27.296Z,10.80
2017-12-15T13:13:59.260Z,9.80
2017-12-15T13:16:29.049Z,11.37
2017-12-15T13:18:58.607Z,10.27
2017-12-15T13:21:28.722Z,10.50
2017-12-15T13:24:00.071Z,9.67
2017-12-15T13:26:30.384Z,9.70
2017-12-15T13:29:00.299Z,9.40
2017-12-15T13:31:29.923Z,10.03
2017-12-15T13:34:00.913Z,13.70
2017-12-15T13:36:30.288Z,7.77
2017-12-15T13:38:59.256Z,8.90
2017-12-15T13:41:28.416Z,11.57
2017-12-15T13:43:58.019Z,9.23
2017-12-15T13:46:28.122Z,9.57
2017-12-15T13:49:01.036Z,9.30
2017-12-15T13:51:30.980Z,10.30
2017-12-15T13:54:00.192Z,8.20
2017-12-15T13:56:31.229Z,9.40
2017-12-15T13:59:01.158Z,9.03
2017-12-15T14:01:30.307Z,8.67
2017-12-15T14:04:00.634Z,9.20
2017-12-15T14:06:30.713Z,9.53
2017-12-15T14:08:59.844Z,9.53
2017-12-15T14:11:31.549Z,9.77
2017-12-15T14:14:00.715Z,13.23
2017-12-15T14:16:30.778Z,10.43
2017-12-15T14:19:00.110Z,10.63
2017-12-15T14:21:29.400Z,9.03
2017-12-15T14:23:59.684Z,9.30
2017-12-15T14:26:31.687Z,13.10
2017-12-15T14:29:01.347Z,10.70
2017-12-15T14:31:31.475Z,10.30
2017-12-15T14:34:01.196Z,10.60
2017-12-15T14:36:30.602Z,11.47
2017-12-15T14:39:00.243Z,10.13
2017-12-15T14:41:30.984Z,11.40
2017-12-15T14:44:00.182Z,10.97
2017-12-15T14:46:29.286Z,11.80
2017-12-15T14:48:59.335Z,13.30
2017-12-15T14:51:30.245Z,12.00
2017-12-15T14:54:02.076Z,24.57
2017-12-15T14:56:32.024Z,27.50
2017-12-15T14:59:01.673Z,32.17
2017-12-15T15:01:31.537Z,25.77
2017-12-15T15:04:00.691Z,27.77
2017-12-15T15:06:30.083Z,29.43
2017-12-15T15:09:01.911Z,31.20
2017-12-15T15:11:30.952Z,23.07
2017-12-15T15:14:00.107Z,25.47
2017-12-15T15:16:29.093Z,27.10
2017-12-15T15:18:58.437Z,25.83
2017-12-15T15:21:27.393Z,27.73
2017-12-15T15:23:56.885Z,27.27
2017-12-15T15:26:26.114Z,28.63
2017-12-15T15:29:03.528Z,30.80
2017-12-15T15:31:32.939Z,30.00
2017-12-15T15:34:03.135Z,29.33
2017-12-15T15:36:34.962Z,28.50
2017-12-15T15:39:05.126Z,25.00
2017-12-15T15:41:34.256Z,24.47
2017-12-15T15:44:04.839Z,29.53
2017-12-15T15:46:34.190Z,19.27
2017-12-15T15:49:04.906Z,18.03
2017-12-15T15:51:35.034Z,16.60
2017-12-15T15:54:05.298Z,13.60
2017-12-15T15:56:34.609Z,12.90
2017-12-15T15:59:04.006Z,14.33
2017-12-15T16:01:33.287Z,15.63
2017-12-15T16:04:02.698Z,14.40
2017-12-15T16:06:32.365Z,13.37
2017-12-15T16:09:01.902Z,14.40
2017-12-15T16:11:31.462Z,17.60
2017-12-15T16:14:00.699Z,15.23
2017-12-15T16:16:29.933Z,15.67
2017-12-15T16:19:00.077Z,16.20
2017-12-15T16:24:04.965Z,16.03
2017-12-15T16:26:34.014Z,18.37
2017-12-15T16:29:06.697Z,22.90
2017-12-15T16:31:36.508Z,19.93
2017-12-15T16:34:06.676Z,22.97
2017-12-15T16:36:36.051Z,22.90
2017-12-15T16:39:05.964Z,22.77
2017-12-15T16:41:35.345Z,23.03
2017-12-15T16:44:06.313Z,23.13
2017-12-15T16:46:36.520Z,19.30
2017-12-15T16:49:06.581Z,20.37
2017-12-15T16:51:35.852Z,20.53
2017-12-15T16:54:05.849Z,22.43
2017-12-15T16:56:35.969Z,23.33
2017-12-15T16:59:05.270Z,21.93
2017-12-15T17:01:35.929Z,23.47
2017-12-15T17:04:05.247Z,22.30
2017-12-15T17:06:34.424Z,20.73
2017-12-15T17:09:03.628Z,21.17
2017-12-15T17:11:33.967Z,19.57
2017-12-15T17:14:03.426Z,21.57
2017-12-15T17:16:32.727Z,17.50
2017-12-15T17:19:01.906Z,15.70
2017-12-15T17:21:31.227Z,15.57
2017-12-15T17:24:01.568Z,14.60
2017-12-15T17:26:32.641Z,13.47
2017-12-15T17:29:01.932Z,16.20
2017-12-15T17:31:31.813Z,14.20
2017-12-15T17:34:01.293Z,11.83
2017-12-15T17:36:31.180Z,13.87
2017-12-15T17:39:00.551Z,12.60
2017-12-15T17:41:29.812Z,13.30
2017-12-15T17:43:59.102Z,14.50
2017-12-15T17:46:28.590Z,14.80
2017-12-15T17:48:58.650Z,22.77
2017-12-15T17:51:28.680Z,19.67
2017-12-15T17:54:00.642Z,21.03
2017-12-15T17:56:30.135Z,19.47
2017-12-15T17:59:00.034Z,21.63
2017-12-15T18:01:30.885Z,21.20
2017-12-15T18:04:01.973Z,19.33
2017-12-15T18:06:31.298Z,14.60
2017-12-15T18:09:00.507Z,12.00
2017-12-15T18:11:29.792Z,11.43
2017-12-15T18:14:00.802Z,11.77
2017-12-15T18:16:30.142Z,11.77
2017-12-15T18:18:59.665Z,10.00
2017-12-15T18:21:29.277Z,12.47
2017-12-15T18:26:34.145Z,12.17
2017-12-15T18:29:03.491Z,14.13
2017-12-15T18:31:33.566Z,12.00
2017-12-15T18:34:03.521Z,12.87
2017-12-15T18:36:32.997Z,13.40
2017-12-15T18:39:25.193Z,11.90
2017-12-15T18:41:54.234Z,12.93
2017-12-15T18:44:23.379Z,12.50
2017-12-15T18:46:52.554Z,14.30
2017-12-15T18:49:21.676Z,11.17
2017-12-15T18:51:52.618Z,10.53
2017-12-15T18:54:22.838Z,10.03
2017-12-15T18:56:52.410Z,9.10
2017-12-15T18:59:21.754Z,10.20
2017-12-15T19:01:51.308Z,12.63
2017-12-15T19:04:21.593Z,10.60
2017-12-15T19:06:51.436Z,19.47
2017-12-15T19:09:21.269Z,13.63
2017-12-15T19:11:50.705Z,11.97
2017-12-15T19:14:21.065Z,10.30
2017-12-15T19:16:50.130Z,14.80
2017-12-15T19:19:19.660Z,17.40
2017-12-15T19:21:49.888Z,22.80
2017-12-15T19:24:19.183Z,15.03
2017-12-15T19:26:48.358Z,15.70
2017-12-15T19:29:18.394Z,11.40
2017-12-15T19:31:48.716Z,12.47
2017-12-15T19:34:17.921Z,9.60
2017-12-15T19:36:47.137Z,9.30
2017-12-15T19:39:16.231Z,8.27
2017-12-15T19:41:45.321Z,10.23
2017-12-15T19:44:15.644Z,8.20
2017-12-15T19:46:45.076Z,8.70
2017-12-15T19:49:14.266Z,7.67
2017-12-15T19:51:46.691Z,5.50
2017-12-15T19:54:17.637Z,11.07
2017-12-15T19:56:47.721Z,7.53
2017-12-15T19:59:16.850Z,5.33
2017-12-15T20:01:46.056Z,4.60
2017-12-15T20:04:17.716Z,4.43
2017-12-15T20:06:47.538Z,4.73
2017-12-15T20:09:16.773Z,3.77
2017-12-15T20:11:50.797Z,4.20
2017-12-15T20:14:19.850Z,3.87
2017-12-15T20:16:48.970Z,4.20
2017-12-15T20:19:18.048Z,3.30
2017-12-15T20:21:47.405Z,4.27
2017-12-15T20:24:17.040Z,2.90
2017-12-15T20:26:46.309Z,3.10
2017-12-15T20:29:15.570Z,3.23
2017-12-15T20:31:44.822Z,3.90
2017-12-15T20:34:14.454Z,3.70
2017-12-15T20:36:44.812Z,4.70
2017-12-15T20:39:14.125Z,3.17
2017-12-15T20:41:46.320Z,3.20
2017-12-15T20:44:15.434Z,2.50
2017-12-15T20:46:44.807Z,2.43
2017-12-15T20:49:14.606Z,2.73
2017-12-15T20:51:44.035Z,3.00
2017-12-15T20:54:13.524Z,2.57
2017-12-15T20:56:43.061Z,3.17
2017-12-15T20:59:23.546Z,2.20
2017-12-15T21:02:00.137Z,2.23
2017-12-15T21:04:29.815Z,2.27
2017-12-15T21:06:59.165Z,2.23
2017-12-15T21:09:28.504Z,2.73
2017-12-15T21:11:57.950Z,2.60
2017-12-15T21:14:27.356Z,3.50
2017-12-15T21:16:57.500Z,3.23
2017-12-15T21:19:26.842Z,3.70
2017-12-15T21:21:56.234Z,2.73
2017-12-15T21:24:27.015Z,2.57
2017-12-15T21:26:56.779Z,2.60
2017-12-15T21:29:26.965Z,2.50
2017-12-15T21:31:57.986Z,2.90
2017-12-15T21:34:27.073Z,3.70
2017-12-15T21:36:56.066Z,3.97
2017-12-15T21:39:24.982Z,3.70
2017-12-15T21:41:54.126Z,3.80
2017-12-15T21:44:23.092Z,3.93
2017-12-15T21:46:56.550Z,4.40
2017-12-15T21:49:25.564Z,2.90
2017-12-15T21:51:54.578Z,3.27
2017-12-15T21:54:23.633Z,3.40
2017-12-15T21:56:54.944Z,3.60
2017-12-15T21:59:24.109Z,3.00
2017-12-15T22:01:55.315Z,2.30
2017-12-15T22:04:24.351Z,2.60
2017-12-15T22:06:53.475Z,2.50
2017-12-15T22:09:25.572Z,2.23
2017-12-15T22:11:55.611Z,3.53
2017-12-15T22:14:24.763Z,3.63
2017-12-15T22:16:54.858Z,2.50
2017-12-15T22:19:24.157Z,3.07
2017-12-15T22:21:53.202Z,2.90
2017-12-15T22:24:24.887Z,2.63
2017-12-15T22:26:53.800Z,3.27
2017-12-15T22:29:22.715Z,3.70
2017-12-15T22:31:51.998Z,3.97
2017-12-15T22:34:20.957Z,3.23
2017-12-15T22:36:49.868Z,4.03
2017-12-15T22:39:18.885Z,15.80
2017-12-15T22:41:47.916Z,5.63
2017-12-15T22:44:17.254Z,3.70
2017-12-15T22:46:47.060Z,3.10
2017-12-15T22:49:16.318Z,3.57
2017-12-15T22:51:46.130Z,2.93
2017-12-15T22:54:16.245Z,3.60
2017-12-15T22:56:45.795Z,2.90
2017-12-15T22:59:14.924Z,2.90
2017-12-15T23:01:45.471Z,3.33
2017-12-15T23:04:14.785Z,3.33
2017-12-15T23:06:44.271Z,4.33
2017-12-15T23:09:13.671Z,3.10
2017-12-15T23:11:44.609Z,2.93
2017-12-15T23:14:13.917Z,2.70
2017-12-15T23:16:44.406Z,2.83
2017-12-15T23:19:14.281Z,3.10
2017-12-15T23:21:44.349Z,3.53
2017-12-15T23:24:13.884Z,2.93
2017-12-15T23:26:43.176Z,3.27
2017-12-15T23:29:12.268Z,3.70
2017-12-15T23:34:20.568Z,4.83
2017-12-15T23:36:50.863Z,3.80
2017-12-15T23:39:23.812Z,3.47
2017-12-15T23:41:54.903Z,3.30
2017-12-15T23:47:02.088Z,3.43
2017-12-15T23:49:31.581Z,3.10
2017-12-15T23:52:00.869Z,3.07
2017-12-15T23:54:41.740Z,4.00
2017-12-15T23:57:11.615Z,4.10
2017-12-15T23:59:42.709Z,4.00
